createdAt,value
2022-12-28T00:01:09.322Z,99390.81
2022-12-28T00:04:15.195Z,99391.31
2022-12-28T00:07:19.035Z,99379.03
2022-12-28T00:11:07.270Z,99376.09
2022-12-28T00:13:44.167Z,99366.63
2022-12-28T00:16:46.825Z,99373.00
2022-12-28T00:19:49.384Z,99371.53
2022-12-28T00:22:53.317Z,99371.22
2022-12-28T00:25:55.781Z,99357.66
2022-12-28T00:29:04.305Z,99349.63
2022-12-28T00:32:08.116Z,99355.63
2022-12-28T00:35:10.659Z,99352.94
2022-12-28T00:38:14.664Z,99348.91
2022-12-28T00:41:17.247Z,99350.22
2022-12-28T00:44:19.927Z,99344.28
2022-12-28T00:47:22.507Z,99342.38
2022-12-28T00:50:25.016Z,99336.81
2022-12-28T00:53:28.924Z,99340.22
2022-12-28T00:56:31.337Z,99335.66
2022-12-28T00:59:33.819Z,99336.38
2022-12-28T01:02:36.346Z,99335.78
2022-12-28T01:05:39.719Z,99321.34
2022-12-28T01:08:44.125Z,99322.25
2022-12-28T01:11:46.671Z,99308.53
2022-12-28T01:14:49.251Z,99302.13
2022-12-28T01:17:51.847Z,99295.09
2022-12-28T01:20:54.500Z,99298.47
2022-12-28T01:24:00.493Z,99296.53
2022-12-28T01:27:03.079Z,99293.28
2022-12-28T01:30:06.599Z,99287.50
2022-12-28T01:33:09.262Z,99281.69
2022-12-28T01:36:15.115Z,99283.03
2022-12-28T01:39:19.026Z,99272.44
2022-12-28T01:42:21.441Z,99271.63
2022-12-28T01:45:24.185Z,99268.47
2022-12-28T01:48:26.774Z,99278.25
2022-12-28T01:51:31.605Z,99272.34
2022-12-28T01:54:39.799Z,99263.31
2022-12-28T01:57:46.367Z,99253.50
2022-12-28T02:00:50.385Z,99253.41
2022-12-28T02:03:52.936Z,99240.13
2022-12-28T02:06:55.830Z,99232.28
2022-12-28T02:10:42.646Z,99227.78
2022-12-28T02:13:23.408Z,99218.41
2022-12-28T02:16:26.072Z,99217.09
2022-12-28T02:19:35.274Z,99214.97
2022-12-28T02:23:15.782Z,99210.09
2022-12-28T02:26:39.713Z,99220.66
2022-12-28T02:30:02.762Z,99215.22
2022-12-28T02:33:10.291Z,99217.41
2022-12-28T02:36:18.990Z,99201.41
2022-12-28T02:39:24.408Z,99198.13
2022-12-28T02:42:27.709Z,99194.03
2022-12-28T02:45:57.614Z,99189.69
2022-12-28T02:49:29.183Z,99181.84
2022-12-28T02:52:42.700Z,99181.25
2022-12-28T02:56:08.945Z,99170.91
2022-12-28T02:59:28.584Z,99174.69
2022-12-28T03:02:44.919Z,99154.84
2022-12-28T03:06:15.976Z,99151.56
2022-12-28T03:09:29.326Z,99142.94
2022-12-28T03:12:34.133Z,99137.97
2022-12-28T03:15:38.992Z,99133.88
2022-12-28T03:19:02.349Z,99128.13
2022-12-28T03:22:22.743Z,99112.78
2022-12-28T03:25:45.678Z,99113.78
2022-12-28T03:29:06.503Z,99134.94
2022-12-28T03:32:09.979Z,99133.25
2022-12-28T03:35:14.018Z,99134.38
2022-12-28T03:38:27.326Z,99131.66
2022-12-28T03:41:32.372Z,99141.97
2022-12-28T03:44:35.164Z,99143.97
2022-12-28T03:47:38.910Z,99142.81
2022-12-28T03:50:43.533Z,99134.78
2022-12-28T03:53:47.660Z,99130.50
2022-12-28T03:56:51.370Z,99119.16
2022-12-28T03:59:53.759Z,99127.53
2022-12-28T04:02:56.501Z,99099.38
2022-12-28T04:06:00.881Z,99101.00
2022-12-28T04:09:03.588Z,99102.84
2022-12-28T04:12:06.971Z,99108.50
2022-12-28T04:15:09.963Z,99095.75
2022-12-28T04:18:12.599Z,99104.25
2022-12-28T04:21:16.540Z,99095.31
2022-12-28T04:24:19.197Z,99099.63
2022-12-28T04:27:24.100Z,99088.19
2022-12-28T04:30:26.615Z,99082.50
2022-12-28T04:33:29.456Z,99067.72
2022-12-28T04:36:33.744Z,99060.81
2022-12-28T04:39:55.342Z,99056.63
2022-12-28T04:42:58.956Z,99057.94
2022-12-28T04:46:03.443Z,99056.34
2022-12-28T04:49:06.211Z,99055.97
2022-12-28T04:52:10.148Z,99055.97
2022-12-28T04:55:31.517Z,99067.81
2022-12-28T04:58:36.086Z,99064.22
2022-12-28T05:01:38.891Z,99065.34
2022-12-28T05:04:41.624Z,99063.41
2022-12-28T05:07:45.512Z,99054.00
2022-12-28T05:10:48.041Z,99041.63
2022-12-28T05:13:51.020Z,99052.97
2022-12-28T05:16:53.791Z,99042.50
2022-12-28T05:19:56.434Z,99041.34
2022-12-28T05:23:00.319Z,99051.06
2022-12-28T05:26:02.990Z,99049.44
2022-12-28T05:29:05.750Z,99048.88
2022-12-28T05:32:08.313Z,99041.25
2022-12-28T05:35:10.988Z,99045.97
2022-12-28T05:38:14.872Z,99046.22
2022-12-28T05:41:18.886Z,99040.94
2022-12-28T05:44:21.556Z,99036.00
2022-12-28T05:47:26.550Z,99050.13
2022-12-28T05:50:29.072Z,99046.09
2022-12-28T05:53:33.413Z,99053.91
2022-12-28T05:56:36.460Z,99039.28
2022-12-28T05:59:38.999Z,99040.84
2022-12-28T06:02:41.610Z,99045.97
2022-12-28T06:05:44.233Z,99044.28
2022-12-28T06:08:49.911Z,99042.91
2022-12-28T06:11:52.643Z,99029.44
2022-12-28T06:14:55.808Z,99020.13
2022-12-28T06:17:58.732Z,99023.25
2022-12-28T06:21:04.820Z,99017.88
2022-12-28T06:24:10.369Z,99016.81
2022-12-28T06:27:12.946Z,99016.91
2022-12-28T06:30:15.526Z,99023.50
2022-12-28T06:33:18.144Z,99026.31
2022-12-28T06:36:22.460Z,99032.84
2022-12-28T06:39:26.425Z,99024.16
2022-12-28T06:42:29.117Z,99020.44
2022-12-28T06:45:31.868Z,99017.72
2022-12-28T06:48:35.553Z,99012.38
2022-12-28T06:51:41.488Z,99016.19
2022-12-28T06:54:45.375Z,99021.91
2022-12-28T06:57:48.065Z,99015.47
2022-12-28T07:00:50.919Z,99011.63
2022-12-28T07:03:55.296Z,99010.31
2022-12-28T07:06:58.183Z,98998.94
2022-12-28T07:10:02.003Z,98990.75
2022-12-28T07:13:05.802Z,98998.81
2022-12-28T07:16:11.243Z,99008.47
2022-12-28T07:19:14.233Z,98996.25
2022-12-28T07:22:16.859Z,98991.56
2022-12-28T07:25:20.958Z,98991.22
2022-12-28T07:28:23.577Z,98990.16
2022-12-28T07:31:27.784Z,98983.91
2022-12-28T07:34:30.355Z,98982.22
2022-12-28T07:37:33.048Z,98975.41
2022-12-28T07:40:37.102Z,98978.28
2022-12-28T07:43:40.208Z,98976.31
2022-12-28T07:46:42.870Z,98971.31
2022-12-28T07:49:45.563Z,98976.34
2022-12-28T07:52:48.151Z,98980.16
2022-12-28T07:55:57.977Z,98977.03
2022-12-28T07:59:02.662Z,98978.88
2022-12-28T08:02:05.362Z,98984.22
2022-12-28T08:05:08.821Z,98978.75
2022-12-28T08:08:11.378Z,98976.81
2022-12-28T08:11:17.605Z,98965.53
2022-12-28T08:14:20.407Z,98972.25
2022-12-28T08:17:23.021Z,98966.88
2022-12-28T08:20:25.948Z,98966.28
2022-12-28T08:23:28.650Z,98964.47
2022-12-28T08:26:33.798Z,98969.81
2022-12-28T08:29:36.403Z,98962.19
2022-12-28T08:32:38.998Z,98967.69
2022-12-28T08:35:41.676Z,98964.59
2022-12-28T08:38:45.528Z,98964.03
2022-12-28T08:41:49.533Z,98943.56
2022-12-28T08:44:52.098Z,98935.41
2022-12-28T08:47:54.861Z,98942.25
2022-12-28T08:51:02.456Z,98949.66
2022-12-28T08:54:05.248Z,98947.50
2022-12-28T08:57:09.175Z,98937.22
2022-12-28T09:00:12.484Z,98943.09
2022-12-28T09:03:15.103Z,98945.19
2022-12-28T09:06:19.391Z,98941.91
2022-12-28T09:09:22.044Z,98936.41
2022-12-28T09:12:26.090Z,98944.22
2022-12-28T09:15:28.675Z,98937.25
2022-12-28T09:18:31.580Z,98939.47
2022-12-28T09:21:37.234Z,98936.34
2022-12-28T09:24:39.700Z,98936.94
2022-12-28T09:27:43.637Z,98941.78
2022-12-28T09:30:46.374Z,98931.97
2022-12-28T09:37:26.845Z,98927.34
2022-12-28T09:40:29.421Z,98918.44
2022-12-28T09:43:33.496Z,98909.41
2022-12-28T09:46:38.088Z,98906.97
2022-12-28T09:49:44.261Z,98905.13
2022-12-28T09:52:52.232Z,98904.22
2022-12-28T09:55:59.590Z,98900.88
2022-12-28T09:59:05.674Z,98912.50
2022-12-28T10:02:17.784Z,98904.84
2022-12-28T10:05:21.646Z,98910.00
2022-12-28T10:08:24.898Z,98899.53
2022-12-28T10:11:29.486Z,98895.66
2022-12-28T10:14:37.574Z,98890.09
2022-12-28T10:17:40.515Z,98895.81
2022-12-28T10:20:44.343Z,98891.09
2022-12-28T10:24:29.037Z,98887.13
2022-12-28T10:27:14.258Z,98883.75
2022-12-28T10:30:20.036Z,98879.19
2022-12-28T10:33:23.011Z,98876.88
2022-12-28T10:36:31.491Z,98861.78
2022-12-28T10:39:40.209Z,98861.63
2022-12-28T10:42:46.458Z,98853.72
2022-12-28T10:45:51.328Z,98852.94
2022-12-28T10:48:55.851Z,98846.34
2022-12-28T10:52:07.259Z,98840.03
2022-12-28T10:55:28.431Z,98839.84
2022-12-28T10:58:33.767Z,98845.31
2022-12-28T11:01:39.095Z,98833.81
2022-12-28T11:04:54.490Z,98832.03
2022-12-28T11:08:05.873Z,98834.25
2022-12-28T11:11:10.973Z,98833.06
2022-12-28T11:14:17.789Z,98828.41
2022-12-28T11:17:24.583Z,98824.28
2022-12-28T11:20:33.677Z,98811.56
2022-12-28T11:23:36.247Z,98812.84
2022-12-28T11:26:39.299Z,98800.16
2022-12-28T11:29:43.732Z,98799.22
2022-12-28T11:32:52.707Z,98793.59
2022-12-28T11:35:59.796Z,98790.13
2022-12-28T11:39:43.755Z,98788.75
2022-12-28T11:42:56.882Z,98777.78
2022-12-28T11:46:00.490Z,98773.09
2022-12-28T11:49:03.579Z,98777.16
2022-12-28T11:52:35.230Z,98769.53
2022-12-28T11:55:48.660Z,98766.81
2022-12-28T11:59:07.148Z,98758.75
2022-12-28T12:02:45.259Z,98759.00
2022-12-28T12:05:52.338Z,98763.75
2022-12-28T12:08:55.048Z,98752.78
2022-12-28T12:12:00.659Z,98744.13
2022-12-28T12:15:07.499Z,98738.22
2022-12-28T12:18:19.864Z,98735.06
2022-12-28T12:21:30.051Z,98730.75
2022-12-28T12:24:37.436Z,98727.66
2022-12-28T12:27:42.873Z,98721.53
2022-12-28T12:30:46.267Z,98716.31
2022-12-28T12:33:50.208Z,98714.81
2022-12-28T12:37:19.666Z,98710.75
2022-12-28T12:40:51.468Z,98702.13
2022-12-28T12:44:13.152Z,98694.06
2022-12-28T12:47:40.788Z,98688.09
2022-12-28T12:51:20.116Z,98684.22
2022-12-28T12:54:31.210Z,98683.13
2022-12-28T12:57:36.916Z,98681.09
2022-12-28T13:00:48.645Z,98679.63
2022-12-28T13:03:52.097Z,98670.88
2022-12-28T13:06:57.681Z,98666.03
2022-12-28T13:10:03.650Z,98667.69
2022-12-28T13:13:06.586Z,98664.22
2022-12-28T13:16:13.326Z,98647.13
2022-12-28T13:19:20.742Z,98659.47
2022-12-28T13:22:31.902Z,98666.75
2022-12-28T13:25:35.229Z,98655.47
2022-12-28T13:28:38.613Z,98649.84
2022-12-28T13:31:49.529Z,98638.25
2022-12-28T13:34:52.104Z,98645.50
2022-12-28T13:38:03.616Z,98631.59
2022-12-28T13:41:17.714Z,98628.84
2022-12-28T13:44:30.931Z,98620.50
2022-12-28T13:47:38.179Z,98624.66
2022-12-28T13:50:41.679Z,98611.50
2022-12-28T13:53:47.148Z,98620.03
2022-12-28T13:56:49.737Z,98617.28
2022-12-28T13:59:53.348Z,98613.31
2022-12-28T14:02:57.407Z,98617.16
2022-12-28T14:06:01.920Z,98619.72
2022-12-28T14:09:05.982Z,98614.13
2022-12-28T14:12:09.000Z,98611.75
2022-12-28T14:15:13.399Z,98618.16
2022-12-28T14:18:17.932Z,98616.09
2022-12-28T14:21:33.110Z,98614.63
2022-12-28T14:24:35.766Z,98615.41
2022-12-28T14:27:40.818Z,98611.56
2022-12-28T14:30:44.001Z,98596.00
2022-12-28T14:33:52.791Z,98594.38
2022-12-28T14:36:56.444Z,98590.84
2022-12-28T14:40:02.266Z,98587.00
2022-12-28T14:43:11.431Z,98589.91
2022-12-28T14:46:18.432Z,98576.91
2022-12-28T14:49:36.772Z,98574.97
2022-12-28T14:52:44.738Z,98569.34
2022-12-28T14:55:56.404Z,98563.38
2022-12-28T14:59:00.788Z,98555.06
2022-12-28T15:02:04.467Z,98564.53
2022-12-28T15:05:35.702Z,98567.75
2022-12-28T15:08:38.266Z,98560.66
2022-12-28T15:11:40.805Z,98556.16
2022-12-28T15:14:43.952Z,98564.03
2022-12-28T15:17:47.241Z,98559.84
2022-12-28T15:20:51.185Z,98559.06
2022-12-28T15:23:55.245Z,98562.25
2022-12-28T15:26:57.895Z,98556.44
2022-12-28T15:30:09.824Z,98553.84
2022-12-28T15:33:14.590Z,98543.88
2022-12-28T15:36:20.293Z,98544.84
2022-12-28T15:39:23.531Z,98552.19
2022-12-28T15:42:26.156Z,98539.69
2022-12-28T15:45:28.679Z,98537.28
2022-12-28T15:48:31.425Z,98537.72
2022-12-28T15:51:35.349Z,98537.38
2022-12-28T15:54:40.349Z,98525.13
2022-12-28T15:57:46.415Z,98528.03
2022-12-28T16:00:49.184Z,98536.81
2022-12-28T16:03:52.151Z,98536.94
2022-12-28T16:06:56.116Z,98536.59
2022-12-28T16:09:58.713Z,98530.69
2022-12-28T16:13:01.994Z,98534.56
2022-12-28T16:16:08.008Z,98520.59
2022-12-28T16:19:12.324Z,98521.25
2022-12-28T16:22:16.241Z,98518.47
2022-12-28T16:25:18.831Z,98509.16
2022-12-28T16:28:21.373Z,98507.41
2022-12-28T16:31:25.604Z,98511.16
2022-12-28T16:34:28.885Z,98498.19
2022-12-28T16:37:32.819Z,98494.81
2022-12-28T16:40:35.728Z,98498.19
2022-12-28T16:43:38.349Z,98492.28
2022-12-28T16:46:40.901Z,98487.94
2022-12-28T16:49:43.938Z,98480.44
2022-12-28T16:52:47.960Z,98473.53
2022-12-28T16:55:50.490Z,98473.34
2022-12-28T16:58:56.868Z,98475.00
2022-12-28T17:02:00.160Z,98478.19
2022-12-28T17:05:02.951Z,98479.16
2022-12-28T17:08:08.233Z,98481.38
2022-12-28T17:11:11.116Z,98479.13
2022-12-28T17:14:17.368Z,98480.06
2022-12-28T17:17:24.072Z,98481.66
2022-12-28T17:20:27.599Z,98478.44
2022-12-28T17:23:31.742Z,98477.47
2022-12-28T17:26:35.115Z,98472.81
2022-12-28T17:29:38.818Z,98473.31
2022-12-28T17:32:42.468Z,98475.25
2022-12-28T17:35:45.139Z,98471.09
2022-12-28T17:38:49.552Z,98461.13
2022-12-28T17:41:52.262Z,98453.72
2022-12-28T17:44:54.898Z,98450.34
2022-12-28T17:47:57.851Z,98449.81
2022-12-28T17:51:00.444Z,98451.59
2022-12-28T17:54:04.933Z,98445.81
2022-12-28T17:57:07.585Z,98440.97
2022-12-28T18:00:12.651Z,98437.78
2022-12-28T18:03:26.044Z,98436.50
2022-12-28T18:06:32.868Z,98431.84
2022-12-28T18:09:37.085Z,98425.41
2022-12-28T18:12:39.717Z,98419.63
2022-12-28T18:15:43.994Z,98411.09
2022-12-28T18:18:47.157Z,98410.91
2022-12-28T18:21:50.446Z,98406.53
2022-12-28T18:24:55.036Z,98408.69
2022-12-28T18:27:58.106Z,98397.31
2022-12-28T18:31:02.341Z,98395.84
2022-12-28T18:34:05.284Z,98394.91
2022-12-28T18:37:09.554Z,98393.81
2022-12-28T18:40:13.900Z,98389.16
2022-12-28T18:43:16.849Z,98383.69
2022-12-28T18:46:19.510Z,98375.88
2022-12-28T18:49:22.871Z,98381.50
2022-12-28T18:52:26.340Z,98368.19
2022-12-28T18:55:30.704Z,98363.91
2022-12-28T18:58:35.186Z,98361.06
2022-12-28T19:02:05.788Z,98360.66
2022-12-28T19:05:02.536Z,98354.44
2022-12-28T19:08:06.104Z,98342.47
2022-12-28T19:11:11.235Z,98357.28
2022-12-28T19:14:15.868Z,98352.09
2022-12-28T19:17:18.646Z,98353.81
2022-12-28T19:20:21.382Z,98345.13
2022-12-28T19:23:24.329Z,98350.03
2022-12-28T19:26:28.621Z,98346.81
2022-12-28T19:29:32.295Z,98334.75
2022-12-28T19:32:34.735Z,98341.78
2022-12-28T19:35:37.434Z,98332.28
2022-12-28T19:38:40.471Z,98330.19
2022-12-28T19:41:44.595Z,98326.50
2022-12-28T19:44:47.315Z,98318.81
2022-12-28T19:47:50.032Z,98306.97
2022-12-28T19:50:53.102Z,98309.22
2022-12-28T19:53:56.123Z,98319.41
2022-12-28T19:57:00.093Z,98312.50
2022-12-28T20:00:02.737Z,98309.91
2022-12-28T20:03:06.137Z,98308.78
2022-12-28T20:06:10.339Z,98308.59
2022-12-28T20:09:14.071Z,98322.28
2022-12-28T20:12:19.279Z,98303.69
2022-12-28T20:15:22.023Z,98311.75
2022-12-28T20:18:24.940Z,98301.53
2022-12-28T20:21:29.144Z,98303.31
2022-12-28T20:24:31.810Z,98293.50
2022-12-28T20:27:36.533Z,98298.00
2022-12-28T20:30:39.520Z,98289.94
2022-12-28T20:33:43.414Z,98285.75
2022-12-28T20:36:46.080Z,98286.03
2022-12-28T20:39:48.726Z,98285.84
2022-12-28T20:43:11.426Z,98273.88
2022-12-28T20:46:14.495Z,98288.13
2022-12-28T20:49:17.259Z,98283.47
2022-12-28T20:52:20.814Z,98280.59
2022-12-28T20:55:24.363Z,98273.81
2022-12-28T20:58:28.852Z,98284.38
2022-12-28T21:01:31.561Z,98273.41
2022-12-28T21:04:34.719Z,98274.22
2022-12-28T21:07:38.124Z,98270.56
2022-12-28T21:10:41.436Z,98263.03
2022-12-28T21:13:45.882Z,98244.59
2022-12-28T21:16:49.849Z,98247.66
2022-12-28T21:19:52.747Z,98249.56
2022-12-28T21:22:55.292Z,98250.84
2022-12-28T21:26:02.057Z,98246.38
2022-12-28T21:29:06.760Z,98235.97
2022-12-28T21:32:09.649Z,98232.13
2022-12-28T21:35:12.386Z,98218.16
2022-12-28T21:38:15.120Z,98224.25
2022-12-28T21:41:40.249Z,98219.63
2022-12-28T21:44:44.439Z,98200.38
2022-12-28T21:47:47.349Z,98214.00
2022-12-28T21:50:50.021Z,98209.19
2022-12-28T21:53:53.410Z,98208.56
2022-12-28T21:56:56.856Z,98213.84
2022-12-28T22:00:21.248Z,98209.66
2022-12-28T22:03:41.696Z,98212.69
2022-12-28T22:06:44.526Z,98213.50
2022-12-28T22:10:04.500Z,98212.88
2022-12-28T22:13:07.097Z,98211.91
2022-12-28T22:16:11.432Z,98212.56
2022-12-28T22:19:14.398Z,98198.78
2022-12-28T22:22:17.171Z,98205.34
2022-12-28T22:25:19.714Z,98206.31
2022-12-28T22:28:22.305Z,98204.84
2022-12-28T22:31:26.333Z,98203.72
2022-12-28T22:34:28.996Z,98202.09
2022-12-28T22:37:33.030Z,98189.09
2022-12-28T22:40:36.356Z,98192.94
2022-12-28T22:43:39.739Z,98191.03
2022-12-28T22:46:43.667Z,98183.81
2022-12-28T22:49:46.296Z,98187.50
2022-12-28T22:52:48.905Z,98188.72
2022-12-28T22:55:58.592Z,98171.44
2022-12-28T22:59:04.739Z,98172.91
2022-12-28T23:02:09.436Z,98182.72
2022-12-28T23:05:12.146Z,98179.31
2022-12-28T23:08:14.829Z,98177.56
2022-12-28T23:11:35.792Z,98182.84
2022-12-28T23:14:56.083Z,98181.38
2022-12-28T23:18:20.220Z,98186.81
2022-12-28T23:21:40.922Z,98182.34
2022-12-28T23:25:01.382Z,98176.72
2022-12-28T23:28:05.904Z,98178.31
2022-12-28T23:31:08.655Z,98169.75
2022-12-28T23:34:12.651Z,98170.22
2022-12-28T23:37:15.286Z,98166.63
2022-12-28T23:40:19.866Z,98160.25
2022-12-28T23:43:22.481Z,98164.00
2022-12-28T23:46:25.121Z,98156.22
2022-12-28T23:49:29.123Z,98148.97
2022-12-28T23:52:31.934Z,98141.69
2022-12-28T23:55:34.477Z,98143.25
2022-12-28T23:58:36.956Z,98143.38
